Weather at Ryan's Creek Aerodrome

Public forecast

Using degrees Celsius for public forecast. Weather courtesy of forecast.io.

Closest aviation weather report (METAR) to Ryan's Creek Aerodrome

Closest report is Christchurch International Airport, 277.5 nm (514.0 km) NE. Retrieved 2020/10/24 20:30 UTC (0 seconds ago):

NZCH 242030Z AUTO 06002KT 9999 NCD 19/10 Q1012 NOSIG

Closest aviation forecast (TAF) to Ryan's Creek Aerodrome

Closest forecast is Queenstown International Airport, 115.9 nm (214.6 km) NNE. Retrieved 2020/10/24 17:11 UTC (3 hours ago):

TAF NZQN 241611Z 2417/2511 02005KT 9999 SCT080 BECMG 2421/2423 26015KT FM250700 21005KT 9999 -RA BKN040